sensor_id;sensor_type;location;lat;lon;timestamp;P1;durP1;ratioP1;P2;durP2;ratioP2
39066;SDS011;24821;51.988;6.020;2023-04-24T00:02:07;3.45;;;3.15;;
39066;SDS011;24821;51.988;6.020;2023-04-24T00:04:35;5.63;;;4.70;;
39066;SDS011;24821;51.988;6.020;2023-04-24T00:07:05;4.93;;;4.38;;
39066;SDS011;24821;51.988;6.020;2023-04-24T00:09:31;4.00;;;3.70;;
39066;SDS011;24821;51.988;6.020;2023-04-24T00:11:57;5.40;;;4.80;;
39066;SDS011;24821;51.988;6.020;2023-04-24T00:14:23;5.55;;;4.10;;
39066;SDS011;24821;51.988;6.020;2023-04-24T00:16:49;5.13;;;4.72;;
39066;SDS011;24821;51.988;6.020;2023-04-24T00:19:14;5.25;;;4.75;;
39066;SDS011;24821;51.988;6.020;2023-04-24T00:21:40;4.80;;;4.28;;
39066;SDS011;24821;51.988;6.020;2023-04-24T00:24:06;4.43;;;3.97;;
39066;SDS011;24821;51.988;6.020;2023-04-24T00:26:34;6.55;;;5.95;;
39066;SDS011;24821;51.988;6.020;2023-04-24T00:28:59;3.72;;;3.42;;
39066;SDS011;24821;51.988;6.020;2023-04-24T00:31:25;3.60;;;2.95;;
39066;SDS011;24821;51.988;6.020;2023-04-24T00:33:50;3.25;;;3.03;;
39066;SDS011;24821;51.988;6.020;2023-04-24T00:36:16;3.83;;;3.30;;
39066;SDS011;24821;51.988;6.020;2023-04-24T00:38:44;4.25;;;3.78;;
39066;SDS011;24821;51.988;6.020;2023-04-24T00:41:09;8.30;;;4.65;;
39066;SDS011;24821;51.988;6.020;2023-04-24T00:43:35;3.97;;;3.53;;
39066;SDS011;24821;51.988;6.020;2023-04-24T00:46:00;4.65;;;4.35;;
39066;SDS011;24821;51.988;6.020;2023-04-24T00:48:26;4.03;;;3.50;;
39066;SDS011;24821;51.988;6.020;2023-04-24T00:50:53;2.85;;;2.65;;
39066;SDS011;24821;51.988;6.020;2023-04-24T00:53:18;3.28;;;2.97;;
39066;SDS011;24821;51.988;6.020;2023-04-24T00:55:44;2.33;;;2.20;;
39066;SDS011;24821;51.988;6.020;2023-04-24T00:58:10;2.92;;;2.72;;
39066;SDS011;24821;51.988;6.020;2023-04-24T01:00:36;2.60;;;2.40;;
39066;SDS011;24821;51.988;6.020;2023-04-24T01:03:02;2.42;;;2.30;;
39066;SDS011;24821;51.988;6.020;2023-04-24T01:05:29;3.78;;;3.47;;
39066;SDS011;24821;51.988;6.020;2023-04-24T01:07:55;4.00;;;3.50;;
39066;SDS011;24821;51.988;6.020;2023-04-24T01:10:21;6.50;;;4.63;;
39066;SDS011;24821;51.988;6.020;2023-04-24T01:12:48;4.97;;;4.47;;
39066;SDS011;24821;51.988;6.020;2023-04-24T01:15:14;6.85;;;6.22;;
39066;SDS011;24821;51.988;6.020;2023-04-24T01:17:40;9.50;;;8.27;;
39066;SDS011;24821;51.988;6.020;2023-04-24T01:20:06;13.30;;;9.50;;
39066;SDS011;24821;51.988;6.020;2023-04-24T01:22:35;10.50;;;7.80;;
39066;SDS011;24821;51.988;6.020;2023-04-24T01:25:01;12.65;;;9.55;;
39066;SDS011;24821;51.988;6.020;2023-04-24T01:27:27;11.45;;;9.32;;
39066;SDS011;24821;51.988;6.020;2023-04-24T01:29:53;12.68;;;9.93;;
39066;SDS011;24821;51.988;6.020;2023-04-24T01:32:19;12.98;;;10.25;;
39066;SDS011;24821;51.988;6.020;2023-04-24T01:34:45;9.98;;;8.45;;
39066;SDS011;24821;51.988;6.020;2023-04-24T01:37:11;7.80;;;7.00;;
39066;SDS011;24821;51.988;6.020;2023-04-24T01:39:37;9.50;;;8.50;;
39066;SDS011;24821;51.988;6.020;2023-04-24T01:42:04;9.40;;;8.02;;
39066;SDS011;24821;51.988;6.020;2023-04-24T01:44:30;9.77;;;7.85;;
39066;SDS011;24821;51.988;6.020;2023-04-24T01:46:56;10.15;;;8.40;;
39066;SDS011;24821;51.988;6.020;2023-04-24T01:49:21;8.35;;;7.20;;
39066;SDS011;24821;51.988;6.020;2023-04-24T01:51:47;10.50;;;7.88;;
39066;SDS011;24821;51.988;6.020;2023-04-24T01:54:13;8.93;;;7.65;;
39066;SDS011;24821;51.988;6.020;2023-04-24T01:56:42;8.70;;;7.90;;
39066;SDS011;24821;51.988;6.020;2023-04-24T01:59:11;8.13;;;7.00;;
39066;SDS011;24821;51.988;6.020;2023-04-24T02:01:37;9.60;;;8.52;;
39066;SDS011;24821;51.988;6.020;2023-04-24T02:04:04;8.23;;;7.28;;
39066;SDS011;24821;51.988;6.020;2023-04-24T02:06:30;9.35;;;7.68;;
39066;SDS011;24821;51.988;6.020;2023-04-24T02:08:58;8.93;;;7.97;;
39066;SDS011;24821;51.988;6.020;2023-04-24T02:11:24;12.40;;;8.30;;
39066;SDS011;24821;51.988;6.020;2023-04-24T02:13:50;10.25;;;8.25;;
39066;SDS011;24821;51.988;6.020;2023-04-24T02:16:16;10.27;;;8.35;;
39066;SDS011;24821;51.988;6.020;2023-04-24T02:18:42;11.63;;;8.85;;
39066;SDS011;24821;51.988;6.020;2023-04-24T02:21:08;15.63;;;10.00;;
39066;SDS011;24821;51.988;6.020;2023-04-24T02:23:34;10.75;;;8.90;;
39066;SDS011;24821;51.988;6.020;2023-04-24T02:25:59;9.70;;;8.38;;
39066;SDS011;24821;51.988;6.020;2023-04-24T02:28:25;12.20;;;9.88;;
39066;SDS011;24821;51.988;6.020;2023-04-24T02:30:53;11.25;;;8.32;;
39066;SDS011;24821;51.988;6.020;2023-04-24T02:33:19;13.07;;;10.00;;
39066;SDS011;24821;51.988;6.020;2023-04-24T02:35:44;16.70;;;9.30;;
39066;SDS011;24821;51.988;6.020;2023-04-24T02:38:10;14.60;;;10.20;;
39066;SDS011;24821;51.988;6.020;2023-04-24T02:40:36;13.13;;;9.30;;
39066;SDS011;24821;51.988;6.020;2023-04-24T02:43:01;13.85;;;9.35;;
39066;SDS011;24821;51.988;6.020;2023-04-24T02:45:27;12.45;;;9.45;;
39066;SDS011;24821;51.988;6.020;2023-04-24T02:47:53;12.70;;;9.20;;
39066;SDS011;24821;51.988;6.020;2023-04-24T02:50:18;10.07;;;9.07;;
39066;SDS011;24821;51.988;6.020;2023-04-24T02:52:44;11.10;;;9.98;;
39066;SDS011;24821;51.988;6.020;2023-04-24T02:55:09;10.63;;;8.18;;
39066;SDS011;24821;51.988;6.020;2023-04-24T02:57:35;8.18;;;6.68;;
39066;SDS011;24821;51.988;6.020;2023-04-24T03:00:01;10.48;;;9.13;;
39066;SDS011;24821;51.988;6.020;2023-04-24T03:02:26;11.02;;;7.78;;
39066;SDS011;24821;51.988;6.020;2023-04-24T03:04:52;12.98;;;8.80;;
39066;SDS011;24821;51.988;6.020;2023-04-24T03:07:17;10.27;;;8.32;;
39066;SDS011;24821;51.988;6.020;2023-04-24T03:09:45;13.02;;;9.65;;
39066;SDS011;24821;51.988;6.020;2023-04-24T03:12:11;15.55;;;9.82;;
39066;SDS011;24821;51.988;6.020;2023-04-24T03:14:37;9.93;;;8.93;;
39066;SDS011;24821;51.988;6.020;2023-04-24T03:17:02;8.25;;;7.45;;
39066;SDS011;24821;51.988;6.020;2023-04-24T03:19:28;12.27;;;9.25;;
39066;SDS011;24821;51.988;6.020;2023-04-24T03:21:53;9.65;;;8.57;;
39066;SDS011;24821;51.988;6.020;2023-04-24T03:24:19;12.93;;;8.05;;
39066;SDS011;24821;51.988;6.020;2023-04-24T03:26:45;10.80;;;8.88;;
39066;SDS011;24821;51.988;6.020;2023-04-24T03:29:11;14.90;;;9.55;;
39066;SDS011;24821;51.988;6.020;2023-04-24T03:31:36;10.85;;;7.78;;
39066;SDS011;24821;51.988;6.020;2023-04-24T03:34:02;10.52;;;8.70;;
39066;SDS011;24821;51.988;6.020;2023-04-24T03:36:27;11.55;;;10.40;;
39066;SDS011;24821;51.988;6.020;2023-04-24T03:38:53;9.82;;;7.60;;
39066;SDS011;24821;51.988;6.020;2023-04-24T03:41:18;11.10;;;8.65;;
39066;SDS011;24821;51.988;6.020;2023-04-24T03:43:44;12.05;;;10.82;;
39066;SDS011;24821;51.988;6.020;2023-04-24T03:46:10;14.15;;;10.07;;
39066;SDS011;24821;51.988;6.020;2023-04-24T03:48:35;20.98;;;11.18;;
39066;SDS011;24821;51.988;6.020;2023-04-24T03:51:01;19.40;;;12.43;;
39066;SDS011;24821;51.988;6.020;2023-04-24T03:53:26;19.27;;;13.68;;
39066;SDS011;24821;51.988;6.020;2023-04-24T03:55:52;16.27;;;13.65;;
39066;SDS011;24821;51.988;6.020;2023-04-24T03:58:18;16.67;;;13.35;;
39066;SDS011;24821;51.988;6.020;2023-04-24T04:00:43;20.13;;;15.35;;
39066;SDS011;24821;51.988;6.020;2023-04-24T04:03:11;18.25;;;14.20;;
39066;SDS011;24821;51.988;6.020;2023-04-24T04:05:38;19.98;;;13.00;;
39066;SDS011;24821;51.988;6.020;2023-04-24T04:08:03;21.95;;;13.93;;
39066;SDS011;24821;51.988;6.020;2023-04-24T04:10:29;30.48;;;14.27;;
39066;SDS011;24821;51.988;6.020;2023-04-24T04:12:54;19.15;;;14.75;;
39066;SDS011;24821;51.988;6.020;2023-04-24T04:15:20;17.35;;;14.80;;
39066;SDS011;24821;51.988;6.020;2023-04-24T04:17:46;18.58;;;13.65;;
39066;SDS011;24821;51.988;6.020;2023-04-24T04:20:11;19.90;;;15.10;;
39066;SDS011;24821;51.988;6.020;2023-04-24T04:22:37;16.35;;;14.18;;
39066;SDS011;24821;51.988;6.020;2023-04-24T04:25:03;21.30;;;14.10;;
39066;SDS011;24821;51.988;6.020;2023-04-24T04:27:29;19.13;;;13.05;;
39066;SDS011;24821;51.988;6.020;2023-04-24T04:29:57;18.02;;;13.25;;
39066;SDS011;24821;51.988;6.020;2023-04-24T04:32:26;19.25;;;13.23;;
39066;SDS011;24821;51.988;6.020;2023-04-24T04:34:51;16.80;;;13.27;;
39066;SDS011;24821;51.988;6.020;2023-04-24T04:37:18;17.20;;;13.70;;
39066;SDS011;24821;51.988;6.020;2023-04-24T04:39:44;15.05;;;12.38;;
39066;SDS011;24821;51.988;6.020;2023-04-24T04:42:09;19.90;;;12.73;;
39066;SDS011;24821;51.988;6.020;2023-04-24T04:44:35;14.70;;;13.02;;
39066;SDS011;24821;51.988;6.020;2023-04-24T04:47:01;15.48;;;12.02;;
39066;SDS011;24821;51.988;6.020;2023-04-24T04:49:30;15.93;;;12.07;;
39066;SDS011;24821;51.988;6.020;2023-04-24T04:51:56;20.67;;;12.10;;
39066;SDS011;24821;51.988;6.020;2023-04-24T04:54:22;14.38;;;11.38;;
39066;SDS011;24821;51.988;6.020;2023-04-24T04:56:49;22.52;;;13.57;;
39066;SDS011;24821;51.988;6.020;2023-04-24T04:59:15;11.13;;;10.02;;
39066;SDS011;24821;51.988;6.020;2023-04-24T05:01:41;17.25;;;12.68;;
39066;SDS011;24821;51.988;6.020;2023-04-24T05:04:06;14.32;;;10.98;;
39066;SDS011;24821;51.988;6.020;2023-04-24T05:06:32;16.13;;;11.40;;
39066;SDS011;24821;51.988;6.020;2023-04-24T05:08:57;11.80;;;10.35;;
39066;SDS011;24821;51.988;6.020;2023-04-24T05:11:23;12.57;;;9.32;;
39066;SDS011;24821;51.988;6.020;2023-04-24T05:13:49;11.75;;;10.40;;
39066;SDS011;24821;51.988;6.020;2023-04-24T05:16:15;17.95;;;10.55;;
39066;SDS011;24821;51.988;6.020;2023-04-24T05:18:40;12.50;;;9.68;;
39066;SDS011;24821;51.988;6.020;2023-04-24T05:21:06;13.77;;;10.00;;
39066;SDS011;24821;51.988;6.020;2023-04-24T05:23:31;12.02;;;9.40;;
39066;SDS011;24821;51.988;6.020;2023-04-24T05:25:57;10.55;;;8.98;;
39066;SDS011;24821;51.988;6.020;2023-04-24T05:28:22;12.63;;;10.43;;
39066;SDS011;24821;51.988;6.020;2023-04-24T05:30:48;11.10;;;8.30;;
39066;SDS011;24821;51.988;6.020;2023-04-24T05:33:14;13.10;;;8.65;;
39066;SDS011;24821;51.988;6.020;2023-04-24T05:35:42;12.98;;;8.70;;
39066;SDS011;24821;51.988;6.020;2023-04-24T05:38:12;9.77;;;8.75;;
39066;SDS011;24821;51.988;6.020;2023-04-24T05:40:37;8.70;;;7.85;;
39066;SDS011;24821;51.988;6.020;2023-04-24T05:43:03;14.88;;;10.43;;
39066;SDS011;24821;51.988;6.020;2023-04-24T05:45:29;12.63;;;9.25;;
39066;SDS011;24821;51.988;6.020;2023-04-24T05:47:55;8.52;;;7.60;;
39066;SDS011;24821;51.988;6.020;2023-04-24T05:50:20;12.10;;;8.82;;
39066;SDS011;24821;51.988;6.020;2023-04-24T05:52:46;10.75;;;7.95;;
39066;SDS011;24821;51.988;6.020;2023-04-24T05:55:11;10.52;;;9.07;;
39066;SDS011;24821;51.988;6.020;2023-04-24T05:57:37;9.27;;;7.55;;
39066;SDS011;24821;51.988;6.020;2023-04-24T06:00:03;10.93;;;9.02;;
39066;SDS011;24821;51.988;6.020;2023-04-24T06:02:29;9.88;;;6.93;;
39066;SDS011;24821;51.988;6.020;2023-04-24T06:04:57;7.82;;;7.13;;
39066;SDS011;24821;51.988;6.020;2023-04-24T06:07:24;12.60;;;7.45;;
39066;SDS011;24821;51.988;6.020;2023-04-24T06:09:51;9.63;;;7.22;;
39066;SDS011;24821;51.988;6.020;2023-04-24T06:12:17;7.65;;;6.18;;
39066;SDS011;24821;51.988;6.020;2023-04-24T06:14:42;9.18;;;7.95;;
39066;SDS011;24821;51.988;6.020;2023-04-24T06:17:08;10.38;;;8.95;;
39066;SDS011;24821;51.988;6.020;2023-04-24T06:19:34;8.50;;;6.45;;
39066;SDS011;24821;51.988;6.020;2023-04-24T06:21:59;8.98;;;7.72;;
39066;SDS011;24821;51.988;6.020;2023-04-24T06:24:28;6.53;;;5.82;;
39066;SDS011;24821;51.988;6.020;2023-04-24T06:26:54;12.13;;;7.20;;
39066;SDS011;24821;51.988;6.020;2023-04-24T06:29:19;5.82;;;5.20;;
39066;SDS011;24821;51.988;6.020;2023-04-24T06:31:45;7.45;;;6.03;;
39066;SDS011;24821;51.988;6.020;2023-04-24T06:34:11;6.63;;;5.95;;
39066;SDS011;24821;51.988;6.020;2023-04-24T06:36:36;9.23;;;6.47;;
39066;SDS011;24821;51.988;6.020;2023-04-24T06:39:02;9.60;;;6.95;;
39066;SDS011;24821;51.988;6.020;2023-04-24T06:41:28;9.00;;;5.38;;
39066;SDS011;24821;51.988;6.020;2023-04-24T06:43:54;7.68;;;6.88;;
39066;SDS011;24821;51.988;6.020;2023-04-24T06:46:19;9.02;;;7.20;;
39066;SDS011;24821;51.988;6.020;2023-04-24T06:48:48;6.65;;;5.90;;
39066;SDS011;24821;51.988;6.020;2023-04-24T06:51:14;9.65;;;6.75;;
39066;SDS011;24821;51.988;6.020;2023-04-24T06:53:40;7.60;;;6.85;;
39066;SDS011;24821;51.988;6.020;2023-04-24T06:56:05;6.05;;;5.55;;
39066;SDS011;24821;51.988;6.020;2023-04-24T06:58:31;7.10;;;6.10;;
39066;SDS011;24821;51.988;6.020;2023-04-24T07:00:57;11.35;;;6.03;;
39066;SDS011;24821;51.988;6.020;2023-04-24T07:03:22;6.30;;;4.88;;
39066;SDS011;24821;51.988;6.020;2023-04-24T07:05:48;4.95;;;4.47;;
39066;SDS011;24821;51.988;6.020;2023-04-24T07:08:14;4.90;;;4.13;;
39066;SDS011;24821;51.988;6.020;2023-04-24T07:10:42;4.95;;;4.53;;
39066;SDS011;24821;51.988;6.020;2023-04-24T07:13:08;7.10;;;4.15;;
39066;SDS011;24821;51.988;6.020;2023-04-24T07:15:34;7.55;;;5.00;;
39066;SDS011;24821;51.988;6.020;2023-04-24T07:18:00;4.57;;;4.18;;
39066;SDS011;24821;51.988;6.020;2023-04-24T07:20:25;3.38;;;2.88;;
39066;SDS011;24821;51.988;6.020;2023-04-24T07:22:51;8.02;;;3.60;;
39066;SDS011;24821;51.988;6.020;2023-04-24T07:25:18;3.35;;;3.05;;
39066;SDS011;24821;51.988;6.020;2023-04-24T07:27:44;3.42;;;3.13;;
39066;SDS011;24821;51.988;6.020;2023-04-24T07:30:10;3.08;;;2.88;;
39066;SDS011;24821;51.988;6.020;2023-04-24T07:32:36;4.80;;;3.35;;
39066;SDS011;24821;51.988;6.020;2023-04-24T07:35:01;2.20;;;2.05;;
39066;SDS011;24821;51.988;6.020;2023-04-24T07:37:27;2.03;;;1.92;;
39066;SDS011;24821;51.988;6.020;2023-04-24T07:39:53;4.55;;;1.75;;
39066;SDS011;24821;51.988;6.020;2023-04-24T07:42:19;1.63;;;1.52;;
39066;SDS011;24821;51.988;6.020;2023-04-24T07:44:44;3.22;;;1.60;;
39066;SDS011;24821;51.988;6.020;2023-04-24T07:47:12;1.70;;;1.40;;
39066;SDS011;24821;51.988;6.020;2023-04-24T07:49:39;1.73;;;1.63;;
39066;SDS011;24821;51.988;6.020;2023-04-24T07:52:06;1.60;;;1.50;;
39066;SDS011;24821;51.988;6.020;2023-04-24T07:54:32;2.35;;;1.70;;
39066;SDS011;24821;51.988;6.020;2023-04-24T07:56:57;1.90;;;1.80;;
39066;SDS011;24821;51.988;6.020;2023-04-24T07:59:23;2.63;;;2.38;;
39066;SDS011;24821;51.988;6.020;2023-04-24T08:01:48;2.00;;;1.90;;
39066;SDS011;24821;51.988;6.020;2023-04-24T08:04:14;4.45;;;2.38;;
39066;SDS011;24821;51.988;6.020;2023-04-24T08:06:39;2.75;;;2.55;;
39066;SDS011;24821;51.988;6.020;2023-04-24T08:09:05;2.30;;;2.15;;
39066;SDS011;24821;51.988;6.020;2023-04-24T08:11:31;3.33;;;2.72;;
39066;SDS011;24821;51.988;6.020;2023-04-24T08:13:57;4.82;;;3.42;;
39066;SDS011;24821;51.988;6.020;2023-04-24T08:16:23;3.33;;;3.00;;
39066;SDS011;24821;51.988;6.020;2023-04-24T08:18:49;4.13;;;3.20;;
39066;SDS011;24821;51.988;6.020;2023-04-24T08:21:15;4.30;;;3.60;;
39066;SDS011;24821;51.988;6.020;2023-04-24T08:23:43;4.72;;;3.45;;
39066;SDS011;24821;51.988;6.020;2023-04-24T08:26:09;4.45;;;4.05;;
39066;SDS011;24821;51.988;6.020;2023-04-24T08:28:36;3.92;;;3.63;;
39066;SDS011;24821;51.988;6.020;2023-04-24T08:31:02;8.40;;;3.60;;
39066;SDS011;24821;51.988;6.020;2023-04-24T08:33:27;4.03;;;3.40;;
39066;SDS011;24821;51.988;6.020;2023-04-24T08:35:59;5.25;;;3.72;;
39066;SDS011;24821;51.988;6.020;2023-04-24T08:38:25;7.95;;;4.28;;
39066;SDS011;24821;51.988;6.020;2023-04-24T08:40:51;6.22;;;3.13;;
39066;SDS011;24821;51.988;6.020;2023-04-24T08:43:17;3.75;;;3.33;;
39066;SDS011;24821;51.988;6.020;2023-04-24T08:45:43;3.47;;;3.13;;
39066;SDS011;24821;51.988;6.020;2023-04-24T08:48:09;4.60;;;3.65;;
39066;SDS011;24821;51.988;6.020;2023-04-24T08:50:35;6.32;;;3.70;;
39066;SDS011;24821;51.988;6.020;2023-04-24T08:53:01;4.55;;;3.97;;
39066;SDS011;24821;51.988;6.020;2023-04-24T08:55:27;4.90;;;4.32;;
39066;SDS011;24821;51.988;6.020;2023-04-24T08:57:55;7.13;;;3.75;;
39066;SDS011;24821;51.988;6.020;2023-04-24T09:00:21;5.95;;;3.78;;
39066;SDS011;24821;51.988;6.020;2023-04-24T09:02:48;5.78;;;3.70;;
39066;SDS011;24821;51.988;6.020;2023-04-24T09:05:16;4.30;;;3.80;;
39066;SDS011;24821;51.988;6.020;2023-04-24T09:07:45;6.28;;;4.85;;
39066;SDS011;24821;51.988;6.020;2023-04-24T09:10:14;6.50;;;4.18;;
39066;SDS011;24821;51.988;6.020;2023-04-24T09:12:56;3.60;;;3.20;;
39066;SDS011;24821;51.988;6.020;2023-04-24T09:15:24;4.47;;;4.03;;
39066;SDS011;24821;51.988;6.020;2023-04-24T09:18:02;4.18;;;3.50;;
39066;SDS011;24821;51.988;6.020;2023-04-24T09:20:30;4.47;;;2.83;;
39066;SDS011;24821;51.988;6.020;2023-04-24T09:22:57;3.20;;;2.42;;
39066;SDS011;24821;51.988;6.020;2023-04-24T09:25:23;2.30;;;2.10;;
39066;SDS011;24821;51.988;6.020;2023-04-24T09:28:03;6.53;;;2.28;;
39066;SDS011;24821;51.988;6.020;2023-04-24T09:30:31;2.28;;;2.00;;
39066;SDS011;24821;51.988;6.020;2023-04-24T09:33:09;3.80;;;2.50;;
39066;SDS011;24821;51.988;6.020;2023-04-24T09:35:35;4.32;;;2.60;;
39066;SDS011;24821;51.988;6.020;2023-04-24T09:38:01;3.17;;;2.75;;
39066;SDS011;24821;51.988;6.020;2023-04-24T09:40:26;9.88;;;2.80;;
39066;SDS011;24821;51.988;6.020;2023-04-24T09:42:52;7.20;;;2.28;;
39066;SDS011;24821;51.988;6.020;2023-04-24T09:45:20;10.50;;;3.35;;
39066;SDS011;24821;51.988;6.020;2023-04-24T09:47:46;8.05;;;3.25;;
39066;SDS011;24821;51.988;6.020;2023-04-24T09:50:18;3.70;;;2.58;;
39066;SDS011;24821;51.988;6.020;2023-04-24T09:52:45;8.40;;;2.90;;
39066;SDS011;24821;51.988;6.020;2023-04-24T09:55:20;7.43;;;3.45;;
39066;SDS011;24821;51.988;6.020;2023-04-24T09:57:48;4.97;;;3.40;;
39066;SDS011;24821;51.988;6.020;2023-04-24T10:00:33;2.78;;;2.63;;
39066;SDS011;24821;51.988;6.020;2023-04-24T10:03:05;3.70;;;3.50;;
39066;SDS011;24821;51.988;6.020;2023-04-24T10:05:31;3.65;;;3.35;;
39066;SDS011;24821;51.988;6.020;2023-04-24T10:08:02;5.85;;;3.97;;
39066;SDS011;24821;51.988;6.020;2023-04-24T10:10:36;6.60;;;3.67;;
39066;SDS011;24821;51.988;6.020;2023-04-24T10:13:07;3.47;;;3.15;;
39066;SDS011;24821;51.988;6.020;2023-04-24T10:15:34;3.53;;;3.22;;
39066;SDS011;24821;51.988;6.020;2023-04-24T10:18:00;2.53;;;2.33;;
39066;SDS011;24821;51.988;6.020;2023-04-24T10:20:28;6.50;;;2.95;;
39066;SDS011;24821;51.988;6.020;2023-04-24T10:22:55;2.95;;;2.72;;
39066;SDS011;24821;51.988;6.020;2023-04-24T10:25:23;4.45;;;2.78;;
39066;SDS011;24821;51.988;6.020;2023-04-24T10:27:57;2.42;;;2.13;;
39066;SDS011;24821;51.988;6.020;2023-04-24T10:30:35;10.73;;;4.23;;
39066;SDS011;24821;51.988;6.020;2023-04-24T10:33:07;4.75;;;4.25;;
39066;SDS011;24821;51.988;6.020;2023-04-24T10:35:46;4.78;;;4.35;;
39066;SDS011;24821;51.988;6.020;2023-04-24T10:40:41;16.08;;;5.40;;
39066;SDS011;24821;51.988;6.020;2023-04-24T10:43:10;6.70;;;5.10;;
39066;SDS011;24821;51.988;6.020;2023-04-24T10:45:36;13.05;;;8.32;;
39066;SDS011;24821;51.988;6.020;2023-04-24T10:48:07;7.22;;;6.50;;
39066;SDS011;24821;51.988;6.020;2023-04-24T10:50:42;6.72;;;4.57;;
39066;SDS011;24821;51.988;6.020;2023-04-24T10:53:12;10.95;;;6.95;;
39066;SDS011;24821;51.988;6.020;2023-04-24T10:55:44;5.65;;;4.03;;
39066;SDS011;24821;51.988;6.020;2023-04-24T10:58:13;4.30;;;4.03;;
39066;SDS011;24821;51.988;6.020;2023-04-24T11:00:41;5.57;;;3.85;;
39066;SDS011;24821;51.988;6.020;2023-04-24T11:03:30;2.60;;;2.50;;
39066;SDS011;24821;51.988;6.020;2023-04-24T11:05:59;5.50;;;3.20;;
39066;SDS011;24821;51.988;6.020;2023-04-24T11:08:45;4.93;;;2.90;;
39066;SDS011;24821;51.988;6.020;2023-04-24T11:11:11;4.20;;;2.38;;
39066;SDS011;24821;51.988;6.020;2023-04-24T11:19:02;4.82;;;2.40;;
39066;SDS011;24821;51.988;6.020;2023-04-24T11:22:01;1.48;;;1.48;;
39066;SDS011;24821;51.988;6.020;2023-04-24T11:24:39;1.65;;;1.65;;
39066;SDS011;24821;51.988;6.020;2023-04-24T11:27:17;2.08;;;1.83;;
39066;SDS011;24821;51.988;6.020;2023-04-24T11:32:28;2.28;;;2.17;;
39066;SDS011;24821;51.988;6.020;2023-04-24T11:37:25;5.03;;;2.90;;
39066;SDS011;24821;51.988;6.020;2023-04-24T11:39:53;1.98;;;1.90;;
39066;SDS011;24821;51.988;6.020;2023-04-24T11:42:21;2.70;;;1.95;;
39066;SDS011;24821;51.988;6.020;2023-04-24T11:44:48;3.92;;;1.63;;
39066;SDS011;24821;51.988;6.020;2023-04-24T11:47:16;1.58;;;1.38;;
39066;SDS011;24821;51.988;6.020;2023-04-24T11:49:42;1.13;;;1.02;;
39066;SDS011;24821;51.988;6.020;2023-04-24T11:52:07;1.35;;;1.17;;
39066;SDS011;24821;51.988;6.020;2023-04-24T11:54:33;1.45;;;1.35;;
39066;SDS011;24821;51.988;6.020;2023-04-24T11:56:59;2.60;;;2.03;;
39066;SDS011;24821;51.988;6.020;2023-04-24T11:59:28;4.43;;;1.50;;
39066;SDS011;24821;51.988;6.020;2023-04-24T12:01:54;0.93;;;0.93;;
39066;SDS011;24821;51.988;6.020;2023-04-24T12:04:19;1.70;;;1.45;;
39066;SDS011;24821;51.988;6.020;2023-04-24T12:07:01;1.90;;;1.30;;
39066;SDS011;24821;51.988;6.020;2023-04-24T12:09:27;1.75;;;1.25;;
39066;SDS011;24821;51.988;6.020;2023-04-24T12:11:56;1.65;;;1.55;;
39066;SDS011;24821;51.988;6.020;2023-04-24T12:14:22;1.08;;;1.00;;
39066;SDS011;24821;51.988;6.020;2023-04-24T12:16:48;1.42;;;1.20;;
39066;SDS011;24821;51.988;6.020;2023-04-24T12:19:20;0.90;;;0.90;;
39066;SDS011;24821;51.988;6.020;2023-04-24T12:21:58;1.08;;;1.08;;
39066;SDS011;24821;51.988;6.020;2023-04-24T12:24:25;1.02;;;1.02;;
39066;SDS011;24821;51.988;6.020;2023-04-24T12:26:51;1.63;;;1.63;;
39066;SDS011;24821;51.988;6.020;2023-04-24T12:29:20;2.55;;;2.45;;
39066;SDS011;24821;51.988;6.020;2023-04-24T12:31:46;2.85;;;2.75;;
39066;SDS011;24821;51.988;6.020;2023-04-24T12:34:21;2.70;;;2.60;;
39066;SDS011;24821;51.988;6.020;2023-04-24T12:36:48;2.70;;;2.50;;
39066;SDS011;24821;51.988;6.020;2023-04-24T12:39:17;2.55;;;2.35;;
39066;SDS011;24821;51.988;6.020;2023-04-24T12:41:54;2.40;;;2.30;;
39066;SDS011;24821;51.988;6.020;2023-04-24T12:44:35;2.92;;;2.65;;
39066;SDS011;24821;51.988;6.020;2023-04-24T12:47:02;4.78;;;1.77;;
39066;SDS011;24821;51.988;6.020;2023-04-24T12:49:29;1.27;;;1.10;;
39066;SDS011;24821;51.988;6.020;2023-04-24T12:51:55;3.35;;;1.33;;
39066;SDS011;24821;51.988;6.020;2023-04-24T12:54:21;2.53;;;1.50;;
39066;SDS011;24821;51.988;6.020;2023-04-24T12:56:47;1.67;;;1.20;;
39066;SDS011;24821;51.988;6.020;2023-04-24T12:59:12;2.47;;;1.30;;
39066;SDS011;24821;51.988;6.020;2023-04-24T13:01:38;2.05;;;1.15;;
39066;SDS011;24821;51.988;6.020;2023-04-24T13:04:04;1.55;;;1.30;;
39066;SDS011;24821;51.988;6.020;2023-04-24T13:06:30;1.10;;;1.10;;
39066;SDS011;24821;51.988;6.020;2023-04-24T13:08:56;0.90;;;0.90;;
39066;SDS011;24821;51.988;6.020;2023-04-24T13:11:22;2.13;;;1.60;;
39066;SDS011;24821;51.988;6.020;2023-04-24T13:13:49;3.10;;;1.13;;
39066;SDS011;24821;51.988;6.020;2023-04-24T13:16:14;5.38;;;1.58;;
39066;SDS011;24821;51.988;6.020;2023-04-24T13:18:40;1.30;;;1.30;;
39066;SDS011;24821;51.988;6.020;2023-04-24T13:21:06;7.35;;;1.50;;
39066;SDS011;24821;51.988;6.020;2023-04-24T13:23:31;1.75;;;1.10;;
39066;SDS011;24821;51.988;6.020;2023-04-24T13:25:59;2.50;;;1.40;;
39066;SDS011;24821;51.988;6.020;2023-04-24T13:28:26;6.38;;;1.23;;
39066;SDS011;24821;51.988;6.020;2023-04-24T13:30:54;2.17;;;0.90;;
39066;SDS011;24821;51.988;6.020;2023-04-24T13:33:20;1.50;;;0.98;;
39066;SDS011;24821;51.988;6.020;2023-04-24T13:35:45;3.05;;;1.45;;
39066;SDS011;24821;51.988;6.020;2023-04-24T13:38:18;3.50;;;1.48;;
39066;SDS011;24821;51.988;6.020;2023-04-24T13:40:47;2.70;;;1.08;;
39066;SDS011;24821;51.988;6.020;2023-04-24T13:43:13;2.42;;;1.48;;
39066;SDS011;24821;51.988;6.020;2023-04-24T13:45:38;1.13;;;1.13;;
39066;SDS011;24821;51.988;6.020;2023-04-24T13:48:04;4.60;;;1.77;;
39066;SDS011;24821;51.988;6.020;2023-04-24T13:50:30;2.80;;;1.90;;
39066;SDS011;24821;51.988;6.020;2023-04-24T13:52:55;2.03;;;1.58;;
39066;SDS011;24821;51.988;6.020;2023-04-24T13:55:21;1.65;;;1.55;;
39066;SDS011;24821;51.988;6.020;2023-04-24T13:57:47;1.25;;;1.20;;
39066;SDS011;24821;51.988;6.020;2023-04-24T14:00:13;1.70;;;1.60;;
39066;SDS011;24821;51.988;6.020;2023-04-24T14:02:39;3.05;;;1.50;;
39066;SDS011;24821;51.988;6.020;2023-04-24T14:05:04;5.38;;;1.75;;
39066;SDS011;24821;51.988;6.020;2023-04-24T14:07:31;1.48;;;1.38;;
39066;SDS011;24821;51.988;6.020;2023-04-24T14:09:57;6.05;;;2.35;;
39066;SDS011;24821;51.988;6.020;2023-04-24T14:12:22;5.25;;;1.67;;
39066;SDS011;24821;51.988;6.020;2023-04-24T14:14:48;2.28;;;1.88;;
39066;SDS011;24821;51.988;6.020;2023-04-24T14:17:13;2.15;;;1.95;;
39066;SDS011;24821;51.988;6.020;2023-04-24T14:19:39;7.72;;;1.90;;
39066;SDS011;24821;51.988;6.020;2023-04-24T14:22:05;1.85;;;1.70;;
39066;SDS011;24821;51.988;6.020;2023-04-24T14:24:30;4.13;;;2.13;;
39066;SDS011;24821;51.988;6.020;2023-04-24T14:26:56;3.80;;;1.90;;
39066;SDS011;24821;51.988;6.020;2023-04-24T14:29:22;1.42;;;1.30;;
39066;SDS011;24821;51.988;6.020;2023-04-24T14:31:48;4.72;;;1.60;;
39066;SDS011;24821;51.988;6.020;2023-04-24T14:34:13;3.70;;;1.90;;
39066;SDS011;24821;51.988;6.020;2023-04-24T14:36:40;7.25;;;2.38;;
39066;SDS011;24821;51.988;6.020;2023-04-24T14:39:05;9.00;;;4.82;;
39066;SDS011;24821;51.988;6.020;2023-04-24T14:41:32;7.38;;;5.88;;
39066;SDS011;24821;51.988;6.020;2023-04-24T14:44:00;13.70;;;8.10;;
39066;SDS011;24821;51.988;6.020;2023-04-24T14:46:28;2.47;;;2.03;;
39066;SDS011;24821;51.988;6.020;2023-04-24T14:48:55;4.00;;;2.17;;
39066;SDS011;24821;51.988;6.020;2023-04-24T14:51:21;4.13;;;1.88;;
39066;SDS011;24821;51.988;6.020;2023-04-24T14:53:47;4.38;;;1.70;;
39066;SDS011;24821;51.988;6.020;2023-04-24T14:56:12;3.33;;;2.03;;